• Join FlightAware (Why Join?)
  • Login
  • US Flag 
09:12PM EDT


 

Airport Tracker/Info


-or-


 

Live Flight TrackerFlight Track Log ✈ N46265 ✈ 17-Oct-2013 ✈ X23 - X60

Flight Track Log - Related Links

Times and Time Zones

All times are in EDT time to prevent confusion due to time zone crossing. See the N46265 flight status page for this flight to view local times or setup timezone preferences in your user account.

Time Position Orientation Groundspeed Altitude Reporting Facility
EDT Latitude Longitude Course Direction KTS MPH feet Rate Location/Type
10:58AM 28.9333 -81.6667 240° Southwest 92 106 1,500  Level Orlando TRACON
10:59AM 28.9167 -81.7000 240° Southwest 97 112 2,100 300 Climbing Orlando TRACON
11:00AM 28.9294 -81.7300 296° West 96 110 2,200  Climbing Jacksonville Center
11:01AM 28.9358 -81.7608 283° West 93 107 2,100  Descending Jacksonville Center
11:02AM 28.9425 -81.7917 284° West 95 109 2,200  Climbing Jacksonville Center
11:03AM 28.9511 -81.8225 288° West 96 110 2,100 -60 Descending Jacksonville Center
11:04AM 28.9533 -81.8486 276° West 96 110 2,100  Level Jacksonville Center
11:05AM 28.9556 -81.8769 275° West 94 108 2,200  Climbing Jacksonville Center
11:06AM 28.9600 -81.9053 280° West 94 108 2,200  Level Jacksonville Center
11:07AM 28.9581 -81.9364 266° West 90 104 2,200 -120 Level Jacksonville Center
11:09AM 28.9461 -81.9981 258° West 98 113 1,900 -120 Descending Jacksonville Center
11:10AM 28.9400 -82.0267 256° West 92 106 1,900  Level Jacksonville Center
11:11AM 28.9361 -82.0550 261° West 93 107 2,000  Climbing Jacksonville Center
11:12AM 28.9342 -82.0858 266° West 92 106 2,000 -60 Level Jacksonville Center
11:13AM 28.9364 -82.1167 275° West 94 108 1,900 -60 Descending Jacksonville Center
11:14AM 28.9344 -82.1475 266° West 95 109 1,900  Level Jacksonville Center
11:15AM 28.9306 -82.1761 261° West 92 106 2,000  Climbing Jacksonville Center
11:16AM 28.9369 -82.2044 284° West 98 113 1,900 -60 Descending Jacksonville Center
11:17AM 28.9619 -82.2186 334° Northwest 99 114 1,900  Level Jacksonville Center
11:18AM 28.9892 -82.2278 344° North 98 113 1,900 -60 Level Jacksonville Center
11:19AM 29.0183 -82.2253 North 100 115 1,800 -180 Descending Jacksonville Center
11:20AM 29.0478 -82.2253 360° North 101 116 1,600 -120 Descending Jacksonville Center
11:21AM 29.0747 -82.2250 North 100 115 1,600 -120 Level Jacksonville Center
11:22AM 29.1061 -82.2225 North 100 115 1,400 -420 Descending Jacksonville Center
11:23AM 29.1292 -82.2247 355° North 96 110 800 -540 Descending Jacksonville Center
11:24AM 29.1542 -82.2267 356° North 88 101 400 60 Descending Jacksonville Center
11:25AM 29.1792 -82.2292 355° North 92 106 1,000 600 Climbing Jacksonville Center
11:26AM 29.1981 -82.2528 313° West 94 108 1,700 540 Climbing Jacksonville Center
11:28AM 29.2150 -82.2789 307° West 96 110 2,200 420 Climbing Jacksonville Center
11:29AM 29.2047 -82.3072 247° West 95 109 2,700 360 Climbing Jacksonville Center
11:30AM 29.1944 -82.3358 248° West 94 108 3,000 120 Climbing Jacksonville Center
11:31AM 29.1903 -82.3669 261° West 95 109 3,000 -60 Level Jacksonville Center
11:32AM 29.1861 -82.3978 261° West 95 109 2,900 -60 Descending Jacksonville Center
11:33AM 29.1822 -82.4264 261° West 97 112 2,900  Level Jacksonville Center
11:34AM 29.1781 -82.4572 261° West 96 110 2,900  Level Jacksonville Center
11:35AM 29.1697 -82.4858 252° West 90 104 2,900  Level Jacksonville Center
11:36AM 29.1636 -82.5144 256° West 96 110 2,900  Level Jacksonville Center
11:37AM 29.1575 -82.5453 257° West 92 106 2,900  Level Jacksonville Center
11:38AM 29.1533 -82.5739 261° West 94 108 2,900  Level Jacksonville Center
11:39AM 29.1722 -82.5978 312° West 98 113 2,900  Level Jacksonville Center
11:40AM 29.1931 -82.6214 315° West 95 109 2,900  Level Jacksonville Center
11:41AM 29.2183 -82.6308 342° North 101 116 2,900 -180 Level Jacksonville Center
11:42AM 29.2350 -82.6069 51° Northeast 101 116 2,600 -300 Descending Jacksonville Center